createdAt,value
2019-04-06T00:01:43.466Z,99016.03
2019-04-06T00:04:46.905Z,99026.13
2019-04-06T00:07:51.159Z,99025.22
2019-04-06T00:10:55.156Z,99022.62
2019-04-06T00:13:58.675Z,99014.78
2019-04-06T00:17:01.916Z,99017.34
2019-04-06T00:20:05.298Z,99016.59
2019-04-06T00:23:08.210Z,99009.55
2019-04-06T00:26:11.121Z,99005.33
2019-04-06T00:29:14.131Z,99004.50
2019-04-06T00:32:24.684Z,99000.63
2019-04-06T00:35:27.596Z,98997.80
2019-04-06T00:38:30.517Z,99000.17
2019-04-06T00:41:33.467Z,98994.63
2019-04-06T00:44:36.729Z,98986.65
2019-04-06T00:47:39.626Z,98997.13
2019-04-06T00:50:42.543Z,98996.33
2019-04-06T00:53:45.444Z,98998.81
2019-04-06T00:56:48.369Z,98995.31
2019-04-06T00:59:51.286Z,98991.77
2019-04-06T01:02:54.200Z,98983.53
2019-04-06T01:05:57.402Z,98983.03
2019-04-06T01:09:00.666Z,98980.85
2019-04-06T01:12:03.584Z,98971.73
2019-04-06T01:15:07.131Z,98980.25
2019-04-06T01:18:10.087Z,98975.50
2019-04-06T01:21:13.015Z,98980.44
2019-04-06T01:24:15.954Z,98975.38
2019-04-06T01:27:19.339Z,98976.89
2019-04-06T01:30:22.322Z,98978.17
2019-04-06T01:33:25.533Z,98972.45
2019-04-06T01:36:28.546Z,98979.00
2019-04-06T01:39:31.827Z,98984.77
2019-04-06T01:42:34.855Z,98978.63
2019-04-06T01:45:38.883Z,98990.48
2019-04-06T01:48:42.475Z,98983.41
2019-04-06T01:51:45.807Z,98978.59
2019-04-06T01:54:48.722Z,98979.45
2019-04-06T01:57:51.624Z,98977.77
2019-04-06T02:01:13.253Z,98977.31
2019-04-06T02:04:17.482Z,98973.77
2019-04-06T02:07:20.787Z,98973.12
2019-04-06T02:10:24.071Z,98971.43
2019-04-06T02:13:28.070Z,98975.34
2019-04-06T02:16:31.022Z,98971.39
2019-04-06T02:19:34.012Z,98969.40
2019-04-06T02:22:37.242Z,98975.80
2019-04-06T02:25:40.169Z,98975.88
2019-04-06T02:28:43.072Z,98972.79
2019-04-06T02:32:17.853Z,98977.53
2019-04-06T02:35:42.339Z,98974.56
2019-04-06T02:39:06.293Z,98972.70
2019-04-06T02:42:13.953Z,98969.66
2019-04-06T02:45:16.922Z,98963.93
2019-04-06T02:48:19.998Z,98974.97
2019-04-06T02:51:23.625Z,98968.80
2019-04-06T02:54:26.928Z,98966.11
2019-04-06T02:57:29.853Z,98971.43
2019-04-06T03:00:33.458Z,98971.92
2019-04-06T03:03:36.389Z,98977.69
2019-04-06T03:06:40.428Z,98971.09
2019-04-06T03:09:43.325Z,98964.42
2019-04-06T03:12:46.255Z,98969.24
2019-04-06T03:15:49.197Z,98960.12
2019-04-06T03:18:52.174Z,98951.69
2019-04-06T03:21:55.609Z,98959.41
2019-04-06T03:24:59.318Z,98956.88
2019-04-06T03:28:02.673Z,98958.66
2019-04-06T03:31:05.849Z,98951.20
2019-04-06T03:34:09.166Z,98953.58
2019-04-06T03:37:12.545Z,98951.81
2019-04-06T03:40:15.867Z,98949.51
2019-04-06T03:43:19.108Z,98955.72
2019-04-06T03:46:23.135Z,98954.29
2019-04-06T03:49:26.518Z,98953.88
2019-04-06T03:52:29.714Z,98951.77
2019-04-06T03:55:32.656Z,98947.03
2019-04-06T03:58:35.922Z,98954.25
2019-04-06T04:01:39.743Z,98954.33
2019-04-06T04:04:43.547Z,98960.05
2019-04-06T04:07:46.572Z,98952.14
2019-04-06T04:10:49.590Z,98953.20
2019-04-06T04:13:53.169Z,98950.98
2019-04-06T04:16:56.541Z,98954.41
2019-04-06T04:19:59.629Z,98950.64
2019-04-06T04:23:03.137Z,98949.25
2019-04-06T04:26:06.004Z,98950.45
2019-04-06T04:29:09.329Z,98953.09
2019-04-06T04:32:12.404Z,98955.27
2019-04-06T04:35:18.324Z,98958.28
2019-04-06T04:38:20.600Z,98961.48
2019-04-06T04:41:23.651Z,98961.19
2019-04-06T04:44:26.967Z,98959.80
2019-04-06T04:47:29.940Z,98966.02
2019-04-06T04:50:32.858Z,98969.55
2019-04-06T04:53:35.775Z,98976.48
2019-04-06T04:56:38.679Z,98982.28
2019-04-06T04:59:41.923Z,98987.44
2019-04-06T05:02:45.138Z,98983.90
2019-04-06T05:05:49.458Z,98981.22
2019-04-06T05:08:52.372Z,98980.77
2019-04-06T05:11:55.694Z,98981.30
2019-04-06T05:15:02.390Z,98985.38
2019-04-06T05:18:06.512Z,98985.41
2019-04-06T05:21:09.735Z,98990.08
2019-04-06T05:24:12.735Z,99003.56
2019-04-06T05:27:16.101Z,98993.88
2019-04-06T05:30:19.308Z,98995.61
2019-04-06T05:33:22.213Z,98994.33
2019-04-06T05:36:25.143Z,98991.58
2019-04-06T05:39:28.782Z,98990.80
2019-04-06T05:42:32.384Z,98999.48
2019-04-06T05:45:36.709Z,99004.42
2019-04-06T05:48:40.306Z,99007.85
2019-04-06T05:51:43.753Z,99001.11
2019-04-06T05:54:47.124Z,99007.47
2019-04-06T05:57:50.403Z,99010.34
2019-04-06T06:00:54.115Z,99011.55
2019-04-06T06:03:57.146Z,99008.41
2019-04-06T06:07:00.088Z,99011.62
2019-04-06T06:10:03.830Z,99016.44
2019-04-06T06:13:06.719Z,99002.64
2019-04-06T06:16:11.526Z,99012.06
2019-04-06T06:19:15.165Z,99013.38
2019-04-06T06:22:18.353Z,99008.89
2019-04-06T06:25:21.261Z,99012.89
2019-04-06T06:28:24.241Z,99012.31
2019-04-06T06:31:27.296Z,99011.21
2019-04-06T06:34:30.517Z,99013.97
2019-04-06T06:37:33.438Z,99018.26
2019-04-06T06:40:36.351Z,99026.67
2019-04-06T06:43:39.251Z,99022.67
2019-04-06T06:46:42.296Z,99023.80
2019-04-06T06:49:45.629Z,99021.52
2019-04-06T06:52:48.610Z,99022.44
2019-04-06T06:55:53.352Z,99019.75
2019-04-06T06:58:56.833Z,99012.17
2019-04-06T07:02:00.528Z,99020.55
2019-04-06T07:05:05.824Z,99018.61
2019-04-06T07:08:08.751Z,99017.25
2019-04-06T07:11:12.275Z,99011.92
2019-04-06T07:14:15.600Z,99022.33
2019-04-06T07:17:18.707Z,99024.80
2019-04-06T07:20:21.597Z,99023.73
2019-04-06T07:23:24.830Z,99028.72
2019-04-06T07:26:27.720Z,99033.02
2019-04-06T07:29:31.059Z,99026.37
2019-04-06T07:32:34.589Z,99027.89
2019-04-06T07:35:37.472Z,99030.95
2019-04-06T07:38:40.796Z,99033.27
2019-04-06T07:41:44.141Z,99035.74
2019-04-06T07:44:47.403Z,99036.47
2019-04-06T07:47:50.414Z,99028.55
2019-04-06T07:50:53.338Z,99031.31
2019-04-06T07:53:56.256Z,99029.42
2019-04-06T07:56:59.162Z,99037.42
2019-04-06T08:00:02.510Z,99027.81
2019-04-06T08:03:07.265Z,99030.24
2019-04-06T08:06:10.456Z,99025.03
2019-04-06T08:09:13.376Z,99026.14
2019-04-06T08:12:16.715Z,99026.37
2019-04-06T08:15:19.755Z,99021.28
2019-04-06T08:18:23.234Z,99028.13
2019-04-06T08:21:26.276Z,99019.52
2019-04-06T08:24:29.562Z,99013.65
2019-04-06T08:27:32.529Z,99013.83
2019-04-06T08:30:44.749Z,99017.95
2019-04-06T08:33:40.884Z,99019.53
2019-04-06T08:36:44.252Z,99007.12
2019-04-06T08:39:47.738Z,99006.39
2019-04-06T08:42:51.462Z,99008.98
2019-04-06T08:45:54.996Z,99010.20
2019-04-06T08:48:58.872Z,99012.27
2019-04-06T08:52:03.001Z,99006.91
2019-04-06T08:55:06.040Z,99012.44
2019-04-06T08:58:08.981Z,99010.53
2019-04-06T09:01:11.878Z,99013.38
2019-04-06T09:04:15.531Z,99012.27
2019-04-06T09:07:18.823Z,99018.98
2019-04-06T09:10:22.439Z,99018.19
2019-04-06T09:13:25.354Z,99017.67
2019-04-06T09:16:28.259Z,99014.38
2019-04-06T09:19:31.192Z,99016.21
2019-04-06T09:22:34.483Z,99014.23
2019-04-06T09:25:38.518Z,99012.49
2019-04-06T09:28:42.515Z,99017.66
2019-04-06T09:31:45.725Z,99016.66
2019-04-06T09:34:48.665Z,99020.31
2019-04-06T09:37:51.573Z,99019.67
2019-04-06T09:40:54.525Z,99012.39
2019-04-06T09:43:57.521Z,99013.13
2019-04-06T09:47:04.701Z,99014.31
2019-04-06T09:50:25.896Z,99006.42
2019-04-06T09:53:51.398Z,99006.17
2019-04-06T09:57:13.310Z,99001.74
2019-04-06T10:00:26.398Z,99005.34
2019-04-06T10:03:36.338Z,99012.13
2019-04-06T10:07:00.343Z,99000.88
2019-04-06T10:10:18.797Z,99000.02
2019-04-06T10:13:41.284Z,98997.97
2019-04-06T10:17:03.826Z,98992.98
2019-04-06T10:20:44.033Z,98991.27
2019-04-06T10:24:05.696Z,98992.41
2019-04-06T10:27:52.051Z,98976.80
2019-04-06T10:31:15.877Z,98987.13
2019-04-06T10:34:37.394Z,98997.27
2019-04-06T10:38:09.309Z,99000.65
2019-04-06T10:41:26.162Z,98995.92
2019-04-06T10:45:01.729Z,99009.07
2019-04-06T10:48:19.135Z,99009.48
2019-04-06T10:51:41.361Z,99003.25
2019-04-06T10:55:03.827Z,99001.56
2019-04-06T10:58:18.065Z,98999.53
2019-04-06T11:01:37.762Z,98993.86
2019-04-06T11:04:47.125Z,98999.36
2019-04-06T11:08:24.724Z,98998.73
2019-04-06T11:11:56.217Z,98986.38
2019-04-06T11:15:09.144Z,98988.91
2019-04-06T11:18:30.761Z,98990.23
2019-04-06T11:21:52.622Z,98978.52
2019-04-06T11:25:12.398Z,98972.00
2019-04-06T11:28:28.126Z,98973.87
2019-04-06T11:31:49.858Z,98968.41
2019-04-06T11:35:05.300Z,98969.05
2019-04-06T11:38:26.750Z,98972.66
2019-04-06T11:41:49.248Z,98976.45
2019-04-06T11:45:24.147Z,98962.83
2019-04-06T11:48:46.085Z,98965.41
2019-04-06T11:52:11.893Z,98964.84
2019-04-06T11:55:37.473Z,98966.94
2019-04-06T11:58:53.491Z,98959.64
2019-04-06T12:02:15.402Z,98961.33
2019-04-06T12:05:47.308Z,98966.08
2019-04-06T12:09:10.642Z,98964.70
2019-04-06T12:12:36.044Z,98960.45
2019-04-06T12:16:01.905Z,98960.30
2019-04-06T12:19:23.368Z,98956.56
2019-04-06T12:22:45.864Z,98963.13
2019-04-06T12:25:58.033Z,98958.39
2019-04-06T12:29:16.554Z,98960.27
2019-04-06T12:32:31.514Z,98966.27
2019-04-06T12:35:57.101Z,98960.58
2019-04-06T12:39:19.100Z,98956.30
2019-04-06T12:42:42.268Z,98958.16
2019-04-06T12:46:05.747Z,98959.39
2019-04-06T12:49:27.136Z,98947.92
2019-04-06T12:52:45.089Z,98946.12
2019-04-06T12:55:56.813Z,98942.30
2019-04-06T12:59:22.478Z,98941.30
2019-04-06T13:02:34.728Z,98947.63
2019-04-06T13:05:56.213Z,98939.34
2019-04-06T13:09:12.470Z,98936.66
2019-04-06T13:12:47.158Z,98935.18
2019-04-06T13:16:16.011Z,98930.12
2019-04-06T13:19:44.392Z,98931.67
2019-04-06T13:22:58.515Z,98927.00
2019-04-06T13:26:08.792Z,98928.80
2019-04-06T13:29:34.511Z,98923.55
2019-04-06T13:33:06.583Z,98915.86
2019-04-06T13:36:28.112Z,98913.56
2019-04-06T13:39:50.098Z,98916.01
2019-04-06T13:43:04.879Z,98914.50
2019-04-06T13:46:26.313Z,98915.24
2019-04-06T13:50:01.175Z,98916.45
2019-04-06T13:53:35.764Z,98920.26
2019-04-06T13:56:58.311Z,98924.08
2019-04-06T14:00:12.846Z,98921.41
2019-04-06T14:03:32.482Z,98927.02
2019-04-06T14:06:42.688Z,98929.18
2019-04-06T14:10:11.882Z,98942.63
2019-04-06T14:13:27.816Z,98935.27
2019-04-06T14:16:38.177Z,98927.91
2019-04-06T14:20:09.825Z,98929.92
2019-04-06T14:23:32.359Z,98928.16
2019-04-06T14:26:54.260Z,98924.17
2019-04-06T14:30:25.798Z,98931.02
2019-04-06T14:33:40.049Z,98921.80
2019-04-06T14:36:58.451Z,98921.27
2019-04-06T14:40:23.847Z,98916.80
2019-04-06T14:43:35.919Z,98919.48
2019-04-06T14:47:10.748Z,98914.27
2019-04-06T14:50:21.783Z,98917.54
2019-04-06T14:53:43.421Z,98919.19
2019-04-06T14:57:09.048Z,98921.03
2019-04-06T15:00:34.171Z,98924.52
2019-04-06T15:04:03.789Z,98915.21
2019-04-06T15:07:21.886Z,98923.58
2019-04-06T15:10:47.538Z,98921.23
2019-04-06T15:14:10.100Z,98918.82
2019-04-06T15:17:20.169Z,98925.21
2019-04-06T15:20:41.579Z,98908.08
2019-04-06T15:23:58.652Z,98912.16
2019-04-06T15:27:19.802Z,98915.30
2019-04-06T15:30:33.806Z,98915.69
2019-04-06T15:33:55.782Z,98913.26
2019-04-06T15:37:19.050Z,98910.48
2019-04-06T15:40:54.189Z,98911.58
2019-04-06T15:44:29.539Z,98905.89
2019-04-06T15:47:52.075Z,98900.77
2019-04-06T15:51:23.454Z,98901.41
2019-04-06T15:54:35.353Z,98898.69
2019-04-06T15:57:57.328Z,98898.90
2019-04-06T16:01:35.286Z,98900.21
2019-04-06T16:04:52.689Z,98901.84
2019-04-06T16:08:13.791Z,98908.01
2019-04-06T16:11:42.396Z,98901.08
2019-04-06T16:14:55.574Z,98906.00
2019-04-06T16:18:14.345Z,98908.00
2019-04-06T16:21:44.847Z,98905.13
2019-04-06T16:24:52.789Z,98906.95
2019-04-06T16:28:04.634Z,98904.31
2019-04-06T16:32:10.100Z,98904.48
2019-04-06T16:35:40.240Z,98903.06
2019-04-06T16:39:18.717Z,98897.30
2019-04-06T16:42:50.686Z,98897.15
2019-04-06T16:46:06.589Z,98900.65
2019-04-06T16:49:21.144Z,98902.73
2019-04-06T16:52:50.720Z,98900.70
2019-04-06T16:56:06.902Z,98886.64
2019-04-06T16:59:28.551Z,98895.34
2019-04-06T17:02:51.092Z,98900.01
2019-04-06T17:06:02.560Z,98901.11
2019-04-06T17:09:11.607Z,98892.38
2019-04-06T17:12:34.336Z,98899.20
2019-04-06T17:15:57.089Z,98891.95
2019-04-06T17:19:21.385Z,98892.89
2019-04-06T17:22:47.163Z,98890.19
2019-04-06T17:26:09.664Z,98884.66
2019-04-06T17:29:29.114Z,98888.73
2019-04-06T17:32:48.280Z,98884.73
2019-04-06T17:35:59.350Z,98889.82
2019-04-06T17:39:21.651Z,98887.08
2019-04-06T17:42:44.473Z,98883.57
2019-04-06T17:46:12.896Z,98879.24
2019-04-06T17:49:39.644Z,98879.86
2019-04-06T17:53:00.674Z,98884.76
2019-04-06T17:56:23.694Z,98885.55
2019-04-06T17:59:58.341Z,98892.53
2019-04-06T18:03:15.212Z,98888.58
2019-04-06T18:06:35.084Z,98888.52
2019-04-06T18:09:48.342Z,98891.75
2019-04-06T18:13:07.534Z,98894.60
2019-04-06T18:16:11.508Z,98889.20
2019-04-06T18:19:15.133Z,98898.50
2019-04-06T18:22:18.761Z,98895.98
2019-04-06T18:25:22.014Z,98899.42
2019-04-06T18:28:25.305Z,98899.01
2019-04-06T18:31:57.505Z,98897.32
2019-04-06T18:35:00.854Z,98903.80
2019-04-06T18:38:26.362Z,98900.98
2019-04-06T18:41:29.647Z,98905.27
2019-04-06T18:44:32.830Z,98911.74
2019-04-06T18:47:36.106Z,98909.95
2019-04-06T18:50:39.183Z,98904.48
2019-04-06T18:53:42.542Z,98906.11
2019-04-06T18:56:45.905Z,98920.31
2019-04-06T18:59:49.213Z,98911.48
2019-04-06T19:02:52.690Z,98918.81
2019-04-06T19:05:55.799Z,98925.05
2019-04-06T19:08:59.554Z,98923.03
2019-04-06T19:12:03.082Z,98917.95
2019-04-06T19:15:06.970Z,98919.91
2019-04-06T19:18:10.387Z,98921.41
2019-04-06T19:21:13.364Z,98928.80
2019-04-06T19:24:17.271Z,98930.42
2019-04-06T19:27:21.628Z,98926.37
2019-04-06T19:30:24.822Z,98923.38
2019-04-06T19:33:28.374Z,98927.53
2019-04-06T19:36:31.457Z,98926.31
2019-04-06T19:39:35.344Z,98923.89
2019-04-06T19:42:39.040Z,98930.02
2019-04-06T19:45:42.967Z,98934.87
2019-04-06T19:48:46.391Z,98929.03
2019-04-06T19:51:49.723Z,98929.36
2019-04-06T19:54:53.462Z,98930.83
2019-04-06T19:57:56.437Z,98926.67
2019-04-06T20:00:59.807Z,98927.48
2019-04-06T20:04:02.894Z,98931.69
2019-04-06T20:07:05.905Z,98929.44
2019-04-06T20:10:10.305Z,98929.96
2019-04-06T20:13:13.534Z,98925.07
2019-04-06T20:16:16.842Z,98920.61
2019-04-06T20:19:22.398Z,98920.80
2019-04-06T20:22:25.876Z,98917.55
2019-04-06T20:25:28.820Z,98922.41
2019-04-06T20:28:32.065Z,98920.84
2019-04-06T20:31:35.471Z,98923.73
2019-04-06T20:34:38.992Z,98916.94
2019-04-06T20:37:42.288Z,98915.84
2019-04-06T20:40:45.327Z,98918.42
2019-04-06T20:43:48.634Z,98916.23
2019-04-06T20:46:51.660Z,98906.03
2019-04-06T20:49:54.824Z,98903.60
2019-04-06T20:52:58.400Z,98910.92
2019-04-06T20:56:01.929Z,98908.11
2019-04-06T20:59:06.433Z,98918.66
2019-04-06T21:02:10.310Z,98913.98
2019-04-06T21:05:13.794Z,98915.95
2019-04-06T21:08:17.199Z,98923.09
2019-04-06T21:11:20.565Z,98921.56
2019-04-06T21:14:24.151Z,98920.63
2019-04-06T21:17:27.627Z,98920.67
2019-04-06T21:20:30.860Z,98926.15
2019-04-06T21:23:34.852Z,98925.44
2019-04-06T21:26:38.056Z,98919.12
2019-04-06T21:29:41.430Z,98927.63
2019-04-06T21:32:45.878Z,98923.09
2019-04-06T21:35:50.097Z,98914.56
2019-04-06T21:38:53.710Z,98918.78
2019-04-06T21:41:56.789Z,98916.75
2019-04-06T21:45:00.009Z,98915.80
2019-04-06T21:48:04.552Z,98917.92
2019-04-06T21:51:07.871Z,98916.34
2019-04-06T21:54:11.280Z,98926.52
2019-04-06T21:57:14.247Z,98925.55
2019-04-06T22:00:26.288Z,98926.27
2019-04-06T22:03:32.640Z,98924.92
2019-04-06T22:06:36.169Z,98932.03
2019-04-06T22:09:39.097Z,98930.73
2019-04-06T22:12:42.008Z,98927.74
2019-04-06T22:15:45.110Z,98930.08
2019-04-06T22:18:48.723Z,98928.48
2019-04-06T22:21:51.773Z,98921.21
2019-04-06T22:24:56.385Z,98919.39
2019-04-06T22:28:00.778Z,98920.72
2019-04-06T22:31:04.239Z,98919.86
2019-04-06T22:34:08.093Z,98920.54
2019-04-06T22:37:11.353Z,98920.66
2019-04-06T22:40:15.283Z,98923.28
2019-04-06T22:43:18.195Z,98914.10
2019-04-06T22:46:22.174Z,98916.59
2019-04-06T22:49:25.539Z,98908.74
2019-04-06T22:52:29.015Z,98911.64
2019-04-06T22:55:32.403Z,98909.94
2019-04-06T22:58:35.764Z,98910.67
2019-04-06T23:01:40.119Z,98911.14
2019-04-06T23:05:09.441Z,98904.77
2019-04-06T23:08:12.868Z,98907.56
2019-04-06T23:11:15.787Z,98911.78
2019-04-06T23:14:19.161Z,98913.17
2019-04-06T23:17:22.549Z,98914.39
2019-04-06T23:20:25.489Z,98911.55
2019-04-06T23:23:28.406Z,98914.61
2019-04-06T23:26:31.645Z,98908.55
2019-04-06T23:29:36.502Z,98903.83
2019-04-06T23:32:39.990Z,98904.39
2019-04-06T23:35:43.685Z,98898.50
2019-04-06T23:38:46.604Z,98901.34
2019-04-06T23:41:49.875Z,98904.63
2019-04-06T23:44:53.226Z,98896.61
2019-04-06T23:47:57.644Z,98895.19
2019-04-06T23:51:00.875Z,98895.58
2019-04-06T23:54:05.501Z,98895.47
2019-04-06T23:57:09.211Z,98895.01
